• Join FlightAware (Why Join?)
  • Login
  • US Flag 
09:48AM EDT


 

Airport Tracker/Info


-or-


 

Live Flight TrackerFlight Track Log ✈ N3673U ✈ 25-Apr-2013 ✈ KMOR - KAZO

Flight Track Log - Related Links

Times and Time Zones

All times are in EDT time to prevent confusion due to time zone crossing. See the N3673U flight status page for this flight to view local times or setup timezone preferences in your user account.

Time Position Orientation Groundspeed Altitude Reporting Facility
EDT Latitude Longitude Course Direction KTS MPH feet Rate Location/Type
04:25PM 36.2153 -83.4158 351° North 171 197 3,700  Level Atlanta Center
04:26PM 36.2550 -83.4233 351° North 155 178 4,500 900 Climbing Atlanta Center
04:27PM 36.2903 -83.4358 344° North 140 161 5,500 900 Climbing Atlanta Center
04:28PM 36.3281 -83.4461 348° North 135 155 6,400 840 Climbing Atlanta Center
04:29PM 36.3594 -83.4561 346° North 135 155 7,200 900 Climbing Atlanta Center
04:30PM 36.3947 -83.4661 347° North 130 150 8,200 600 Climbing Atlanta Center
04:31PM 36.4078 -83.4678 354° North 134 154 8,000 -120 Descending Indianapolis Center
04:32PM 36.4511 -83.4800 347° North 146 168 8,100  Climbing Indianapolis Center
04:33PM 36.4989 -83.4958 345° North 166 191 8,100  Level Indianapolis Center
04:34PM 36.5442 -83.5186 338° Northwest 174 200 8,100  Level Indianapolis Center
04:35PM 36.6000 -83.5394 343° North 177 204 8,100  Level Indianapolis Center
04:36PM 36.6506 -83.5547 346° North 183 211 8,100  Level Indianapolis Center
04:37PM 36.7006 -83.5714 345° North 185 213 8,100 -60 Level Indianapolis Center
04:38PM 36.7483 -83.5869 345° North 181 208 8,000  Descending Indianapolis Center
04:39PM 36.7972 -83.6039 344° North 180 207 8,100  Climbing Indianapolis Center
04:40PM 36.8456 -83.6206 345° North 180 207 8,100  Level Indianapolis Center
04:41PM 36.9022 -83.6381 346° North 179 206 8,100  Level Indianapolis Center
04:42PM 36.9486 -83.6550 344° North 175 201 8,100  Level Indianapolis Center
04:43PM 36.9967 -83.6708 345° North 176 203 8,100 -60 Level Indianapolis Center
04:44PM 37.0453 -83.6875 345° North 179 206 8,000 -60 Descending Indianapolis Center
04:45PM 37.0942 -83.7031 346° North 180 207 8,000  Level Indianapolis Center
04:46PM 37.1522 -83.7206 346° North 182 209 8,000  Level Indianapolis Center
04:47PM 37.2000 -83.7406 342° North 181 208 8,000 -60 Level Indianapolis Center
04:48PM 37.2500 -83.7567 346° North 184 212 7,900  Descending Indianapolis Center
04:49PM 37.3003 -83.7706 348° North 184 212 8,000  Climbing Indianapolis Center
04:50PM 37.3503 -83.7892 344° North 185 213 7,900  Descending Indianapolis Center
04:51PM 37.3986 -83.8069 344° North 183 211 8,000  Climbing Indianapolis Center
04:52PM 37.4556 -83.8247 346° North 181 208 7,900 -60 Descending Indianapolis Center
04:53PM 37.5064 -83.8425 344° North 186 214 7,900  Level Indianapolis Center
04:54PM 37.5575 -83.8592 346° North 189 217 8,000  Climbing Indianapolis Center
04:55PM 37.6092 -83.8750 346° North 189 217 8,000  Level Indianapolis Center
04:57PM 37.6614 -83.8933 344° North 192 221 8,000  Level Indianapolis Center
04:58PM 37.7108 -83.9108 344° North 187 215 8,100 180 Climbing Indianapolis Center
04:59PM 37.7697 -83.9314 345° North 187 215 8,400 420 Climbing Indianapolis Center
05:00PM 37.8128 -83.9422 349° North 165 190 9,000 240 Climbing Indianapolis Center
05:01PM 37.8561 -83.9600 342° North 162 186 9,000  Level Indianapolis Center
05:02PM 37.9031 -83.9761 345° North 169 194 9,000 -60 Level Indianapolis Center
05:03PM 37.9500 -83.9903 347° North 172 198 8,900 -60 Descending Indianapolis Center
05:04PM 38.0047 -84.0103 344° North 175 201 8,900  Level Indianapolis Center
05:05PM 38.0533 -84.0250 347° North 177 204 8,900  Level Indianapolis Center
05:06PM 38.0989 -84.0431 343° North 175 201 8,900  Level Indianapolis Center
05:07PM 38.1464 -84.0583 346° North 174 200 8,900  Level Indianapolis Center
05:08PM 38.1944 -84.0725 347° North 176 203 8,900  Level Indianapolis Center
05:09PM 38.2417 -84.0894 344° North 175 201 8,900  Level Indianapolis Center
05:10PM 38.2964 -84.1094 344° North 175 201 8,900  Level Indianapolis Center
05:11PM 38.3439 -84.1247 346° North 175 201 8,900  Level Indianapolis Center
05:12PM 38.3922 -84.1422 344° North 178 205 8,900  Level Indianapolis Center
05:13PM 38.4394 -84.1589 345° North 177 204 8,900  Level Indianapolis Center
05:14PM 38.4878 -84.1753 345° North 178 205 8,900 -480 Level Indianapolis Center
05:15PM 38.5478 -84.1956 345° North 191 220 8,000 -720 Descending Indianapolis Center
05:16PM 38.5997 -84.2158 343° North 195 224 7,500 -540 Descending Indianapolis Center
05:17PM 38.6553 -84.2325 347° North 204 235 7,000 -300 Descending Indianapolis Center
05:18PM 38.7078 -84.2522 344° North 199 229 7,000  Level Indianapolis Center
05:19PM 38.7578 -84.2700 345° North 193 222 7,000  Level Indianapolis Center
05:20PM 38.8078 -84.2886 344° North 188 216 7,000  Level Indianapolis Center
05:21PM 38.8661 -84.3086 345° North 185 213 7,000  Level Indianapolis Center
05:22PM 38.9169 -84.3250 346° North 186 214 7,000  Level Indianapolis Center
05:23PM 38.9669 -84.3433 344° North 185 213 7,000  Level Indianapolis Center
05:24PM 39.0167 -84.3619 344° North 184 212 7,000  Level Indianapolis Center
05:25PM 39.0686 -84.3783 346° North 189 217 7,000  Level Indianapolis Center
05:26PM 39.1000 -84.3833 353° North 190 219 7,000  Level Cincinnati TRACON
05:27PM 39.1500 -84.4000 346° North 186 214 7,000  Level Cincinnati TRACON
05:27PM 39.1697 -84.4175 325° Northwest 186 214 7,000  Level Indianapolis Center
05:28PM 39.2128 -84.4314 346° North 192 221 7,000  Level Indianapolis Center
05:29PM 39.2231 -84.4336 350° North 190 219 7,000  Level Indianapolis Center
05:29PM 39.2658 -84.4492 344° North 194 223 7,000 60 Level Indianapolis Center
05:30PM 39.2853 -84.4556 346° North 195 224 7,100  Climbing Indianapolis Center
05:30PM 39.3125 -84.4664 343° North 195 224 7,000 -120 Descending Indianapolis Center
05:31PM 39.3372 -84.4750 345° North 193 222 7,000  Level Indianapolis Center
05:31PM 39.3697 -84.4875 343° North 193 222 7,000  Level Indianapolis Center
05:32PM 39.3892 -84.4936 346° North 191 220 7,000  Level Indianapolis Center
05:32PM 39.4206 -84.5053 344° North 188 216 7,000  Level Indianapolis Center
05:33PM 39.4400 -84.5117 346° North 189 217 7,000  Level Indianapolis Center
05:33PM 39.4714 -84.5231 344° North 193 222 7,000  Level Indianapolis Center
05:34PM 39.4931 -84.5297 347° North 192 221 7,000  Level Indianapolis Center
05:34PM 39.5203 -84.5406 343° North 195 224 7,000  Level Indianapolis Center
05:35PM 39.5472 -84.5497 345° North 198 228 7,000  Level Indianapolis Center
05:36PM 39.5897 -84.5636 346° North 197 227 7,000  Level Indianapolis Center
05:36PM 39.6011 -84.5675 345° North 197 227 7,000  Level Indianapolis Center
05:37PM 39.6408 -84.5814 345° North 193 222 7,000  Level Indianapolis Center
05:37PM 39.6533 -84.5853 347° North 194 223 7,000  Level Indianapolis Center
05:38PM 39.6956 -84.6028 342° North 190 219 7,000  Level Indianapolis Center
05:38PM 39.7125 -84.6078 347° North 190 219 7,000  Level Indianapolis Center
05:38PM 39.7342 -84.6189 338° Northwest 188 216 7,000  Level Indianapolis Center
05:39PM 39.7633 -84.6281 346° North 189 217 7,000  Level Indianapolis Center
05:40PM 39.8150 -84.6458 345° North 189 217 7,000  Level Indianapolis Center
05:40PM 39.8464 -84.6561 346° North 194 223 7,000  Level Indianapolis Center
05:41PM 39.8672 -84.6633 345° North 192 221 7,000  Level Indianapolis Center
05:41PM 39.8972 -84.6742 345° North 195 224 7,000  Level Indianapolis Center
05:42PM 39.9197 -84.6822 345° North 193 222 7,000  Level Indianapolis Center
05:42PM 39.9503 -84.6925 346° North 195 224 7,000  Level Indianapolis Center
05:43PM 39.9769 -84.7019 345° North 194 223 7,000  Level Indianapolis Center
05:44PM 40.0050 -84.7139 342° North 191 220 7,000  Level Indianapolis Center
05:44PM 40.0250 -84.7208 345° North 194 223 7,000  Level Indianapolis Center
05:45PM 40.0819 -84.7428 344° North 185 213 7,000  Level Indianapolis Center
05:46PM 40.1336 -84.7603 345° North 187 215 7,000  Level Indianapolis Center
05:47PM 40.1836 -84.7786 344° North 187 215 7,000  Level Indianapolis Center
05:48PM 40.2319 -84.7972 344° North 182 209 7,000  Level Indianapolis Center
05:49PM 40.2817 -84.8147 345° North 182 209 7,000  Level Indianapolis Center
05:50PM 40.3308 -84.8333 344° North 182 209 7,000 -300 Level Indianapolis Center
05:51PM 40.3814 -84.8531 343° North 185 213 6,500 -480 Descending Indianapolis Center
05:52PM 40.4433 -84.8750 345° North 194 223 6,100 -240 Descending Indianapolis Center
05:53PM 40.4886 -84.8931 343° North 195 224 6,000 -60 Descending Indianapolis Center
05:54PM 40.5478 -84.9128 346° North 192 221 6,000  Level Indianapolis Center
05:55PM 40.5953 -84.9294 345° North 185 213 6,000  Level Indianapolis Center
05:56PM 40.6453 -84.9506 342° North 184 212 6,000  Level Indianapolis Center
05:57PM 40.6644 -84.9556 349° North 179 206 6,000  Level Chicago Center
05:58PM 40.7239 -84.9783 344° North 183 211 6,000  Level Chicago Center
05:59PM 40.7725 -84.9947 346° North 183 211 6,000  Level Chicago Center
06:00PM 40.8233 -85.0131 345° North 187 215 6,000  Level Chicago Center
06:01PM 40.8719 -85.0314 344° North 185 213 6,000  Level Chicago Center
06:02PM 40.9219 -85.0494 345° North 184 212 6,000  Level Chicago Center
06:03PM 40.9708 -85.0708 342° North 185 213 6,000  Level Chicago Center
06:04PM 41.0308 -85.0894 347° North 185 213 6,000  Level Chicago Center
06:05PM 41.0806 -85.1053 347° North 185 213 6,000  Level Chicago Center
06:06PM 41.1294 -85.1283 340° North 185 213 6,000  Level Chicago Center
06:07PM 41.1797 -85.1489 343° North 187 215 6,000  Level Chicago Center
06:08PM 41.2292 -85.1658 346° North 186 214 6,000  Level Chicago Center
06:09PM 41.2800 -85.1836 345° North 187 215 6,000  Level Chicago Center
06:10PM 41.3389 -85.2069 343° North 186 214 6,000  Level Chicago Center
06:12PM 41.3892 -85.2256 344° North 187 215 6,000  Level Chicago Center
06:13PM 41.4386 -85.2442 344° North 186 214 6,000  Level Chicago Center
06:14PM 41.4878 -85.2644 343° North 186 214 6,000  Level Chicago Center
06:15PM 41.5364 -85.2831 344° North 185 213 6,000  Level Chicago Center
06:16PM 41.5958 -85.3042 345° North 185 213 6,000  Level Chicago Center
06:17PM 41.6447 -85.3233 344° North 186 214 6,000  Level Chicago Center
06:18PM 41.6936 -85.3439 343° North 187 215 6,000  Level Chicago Center
06:19PM 41.7428 -85.3625 344° North 187 215 6,000  Level Chicago Center
06:20PM 41.8025 -85.3850 344° North 187 215 6,000  Level Chicago Center
06:21PM 41.8511 -85.4039 344° North 183 211 6,000 -240 Level Chicago Center
06:22PM 41.9025 -85.4236 344° North 189 217 5,600 -420 Descending Chicago Center
06:23PM 41.9550 -85.4447 343° North 195 224 5,200 -480 Descending Chicago Center
06:24PM 42.0061 -85.4631 345° North 193 222 4,700 -720 Descending Chicago Center
06:25PM 42.0667 -85.4869 344° North 190 219 3,800 -840 Descending Chicago Center
06:26PM 42.1178 -85.5106 341° North 193 222 3,000 -540 Descending Chicago Center
06:27PM 42.1633 -85.5331 340° North 186 214 2,700 -780 Descending Chicago Center
06:28PM 42.1942 -85.5417 348° North 139 160 1,500 -780 Descending Chicago Center
06:29PM 42.2225 -85.5514 346° North 129 148 1,200 -300 Descending Chicago Center
06:31PM 42.2333 -85.5500 340° North  Level FlightAware Approximate